sensor_id;sensor_type;location;lat;lon;timestamp;P1;durP1;ratioP1;P2;durP2;ratioP2
33150;SDS011;19508;42.578;23.416;2024-03-08T00:00:50;38.45;;;18.60;;
33150;SDS011;19508;42.578;23.416;2024-03-08T00:03:16;36.53;;;15.35;;
33150;SDS011;19508;42.578;23.416;2024-03-08T00:05:42;34.55;;;15.73;;
33150;SDS011;19508;42.578;23.416;2024-03-08T00:08:07;34.78;;;16.48;;
33150;SDS011;19508;42.578;23.416;2024-03-08T00:10:35;36.25;;;16.73;;
33150;SDS011;19508;42.578;23.416;2024-03-08T00:13:00;37.42;;;17.27;;
33150;SDS011;19508;42.578;23.416;2024-03-08T00:15:29;36.85;;;17.90;;
33150;SDS011;19508;42.578;23.416;2024-03-08T00:17:54;33.25;;;16.38;;
33150;SDS011;19508;42.578;23.416;2024-03-08T00:20:20;37.53;;;16.63;;
33150;SDS011;19508;42.578;23.416;2024-03-08T00:22:45;41.72;;;17.65;;
33150;SDS011;19508;42.578;23.416;2024-03-08T00:25:11;37.47;;;16.38;;
33150;SDS011;19508;42.578;23.416;2024-03-08T00:27:39;39.05;;;17.38;;
33150;SDS011;19508;42.578;23.416;2024-03-08T00:30:06;37.33;;;16.15;;
33150;SDS011;19508;42.578;23.416;2024-03-08T00:32:32;36.90;;;18.02;;
33150;SDS011;19508;42.578;23.416;2024-03-08T00:34:58;41.25;;;16.15;;
33150;SDS011;19508;42.578;23.416;2024-03-08T00:37:23;41.60;;;18.65;;
33150;SDS011;19508;42.578;23.416;2024-03-08T00:39:50;43.00;;;18.05;;
33150;SDS011;19508;42.578;23.416;2024-03-08T00:42:16;35.85;;;16.05;;
33150;SDS011;19508;42.578;23.416;2024-03-08T00:44:42;36.15;;;14.48;;
33150;SDS011;19508;42.578;23.416;2024-03-08T00:47:08;37.90;;;16.83;;
33150;SDS011;19508;42.578;23.416;2024-03-08T00:49:33;37.45;;;15.02;;
33150;SDS011;19508;42.578;23.416;2024-03-08T00:51:59;35.17;;;15.60;;
33150;SDS011;19508;42.578;23.416;2024-03-08T00:54:24;39.03;;;15.77;;
33150;SDS011;19508;42.578;23.416;2024-03-08T00:56:49;39.72;;;16.85;;
33150;SDS011;19508;42.578;23.416;2024-03-08T00:59:15;42.50;;;16.10;;
33150;SDS011;19508;42.578;23.416;2024-03-08T01:01:41;40.22;;;17.25;;
33150;SDS011;19508;42.578;23.416;2024-03-08T01:04:06;42.45;;;17.58;;
33150;SDS011;19508;42.578;23.416;2024-03-08T01:06:33;42.85;;;17.35;;
33150;SDS011;19508;42.578;23.416;2024-03-08T01:08:59;47.20;;;19.00;;
33150;SDS011;19508;42.578;23.416;2024-03-08T01:11:24;45.20;;;18.05;;
33150;SDS011;19508;42.578;23.416;2024-03-08T01:13:49;44.17;;;17.20;;
33150;SDS011;19508;42.578;23.416;2024-03-08T01:16:15;49.00;;;17.98;;
33150;SDS011;19508;42.578;23.416;2024-03-08T01:18:42;51.67;;;20.23;;
33150;SDS011;19508;42.578;23.416;2024-03-08T01:21:08;56.88;;;20.70;;
33150;SDS011;19508;42.578;23.416;2024-03-08T01:23:33;55.67;;;20.08;;
33150;SDS011;19508;42.578;23.416;2024-03-08T01:25:59;54.70;;;20.83;;
33150;SDS011;19508;42.578;23.416;2024-03-08T01:28:26;62.67;;;20.55;;
33150;SDS011;19508;42.578;23.416;2024-03-08T01:30:52;58.90;;;20.08;;
33150;SDS011;19508;42.578;23.416;2024-03-08T01:33:23;61.50;;;24.45;;
33150;SDS011;19508;42.578;23.416;2024-03-08T01:35:51;53.45;;;20.65;;
33150;SDS011;19508;42.578;23.416;2024-03-08T01:38:19;54.45;;;20.95;;
33150;SDS011;19508;42.578;23.416;2024-03-08T01:40:48;58.58;;;23.85;;
33150;SDS011;19508;42.578;23.416;2024-03-08T01:43:21;58.05;;;23.38;;
33150;SDS011;19508;42.578;23.416;2024-03-08T01:45:50;57.15;;;21.08;;
33150;SDS011;19508;42.578;23.416;2024-03-08T01:48:16;56.78;;;22.52;;
33150;SDS011;19508;42.578;23.416;2024-03-08T01:50:43;54.50;;;22.05;;
33150;SDS011;19508;42.578;23.416;2024-03-08T01:53:09;56.88;;;21.92;;
33150;SDS011;19508;42.578;23.416;2024-03-08T01:55:36;49.42;;;19.58;;
33150;SDS011;19508;42.578;23.416;2024-03-08T01:58:03;49.95;;;20.05;;
33150;SDS011;19508;42.578;23.416;2024-03-08T02:00:30;46.25;;;18.45;;
33150;SDS011;19508;42.578;23.416;2024-03-08T02:02:57;45.58;;;18.50;;
33150;SDS011;19508;42.578;23.416;2024-03-08T02:05:23;49.78;;;19.35;;
33150;SDS011;19508;42.578;23.416;2024-03-08T02:07:49;44.45;;;17.17;;
33150;SDS011;19508;42.578;23.416;2024-03-08T02:10:14;31.33;;;13.73;;
33150;SDS011;19508;42.578;23.416;2024-03-08T02:12:40;28.27;;;12.48;;
33150;SDS011;19508;42.578;23.416;2024-03-08T02:15:06;26.52;;;11.60;;
33150;SDS011;19508;42.578;23.416;2024-03-08T02:17:32;26.13;;;12.27;;
33150;SDS011;19508;42.578;23.416;2024-03-08T02:20:00;22.83;;;10.65;;
33150;SDS011;19508;42.578;23.416;2024-03-08T02:22:27;25.10;;;11.68;;
33150;SDS011;19508;42.578;23.416;2024-03-08T02:24:54;25.13;;;11.55;;
33150;SDS011;19508;42.578;23.416;2024-03-08T02:27:24;23.77;;;10.25;;
33150;SDS011;19508;42.578;23.416;2024-03-08T02:29:56;22.75;;;10.15;;
33150;SDS011;19508;42.578;23.416;2024-03-08T02:32:22;18.48;;;9.65;;
33150;SDS011;19508;42.578;23.416;2024-03-08T02:34:48;22.85;;;9.50;;
33150;SDS011;19508;42.578;23.416;2024-03-08T02:37:14;22.48;;;9.23;;
33150;SDS011;19508;42.578;23.416;2024-03-08T02:39:40;15.45;;;8.63;;
33150;SDS011;19508;42.578;23.416;2024-03-08T02:42:06;15.43;;;8.27;;
33150;SDS011;19508;42.578;23.416;2024-03-08T02:44:32;18.55;;;8.73;;
33150;SDS011;19508;42.578;23.416;2024-03-08T02:46:58;17.23;;;8.73;;
33150;SDS011;19508;42.578;23.416;2024-03-08T02:49:24;17.77;;;8.48;;
33150;SDS011;19508;42.578;23.416;2024-03-08T02:51:51;20.48;;;9.60;;
33150;SDS011;19508;42.578;23.416;2024-03-08T02:54:22;22.33;;;9.23;;
33150;SDS011;19508;42.578;23.416;2024-03-08T02:56:49;21.40;;;9.55;;
33150;SDS011;19508;42.578;23.416;2024-03-08T02:59:16;19.55;;;8.93;;
33150;SDS011;19508;42.578;23.416;2024-03-08T03:01:42;21.13;;;11.05;;
33150;SDS011;19508;42.578;23.416;2024-03-08T03:04:08;19.90;;;9.98;;
33150;SDS011;19508;42.578;23.416;2024-03-08T03:06:33;15.70;;;7.97;;
33150;SDS011;19508;42.578;23.416;2024-03-08T03:08:59;8.77;;;5.20;;
33150;SDS011;19508;42.578;23.416;2024-03-08T03:11:24;11.40;;;5.53;;
33150;SDS011;19508;42.578;23.416;2024-03-08T03:13:49;5.43;;;3.80;;
33150;SDS011;19508;42.578;23.416;2024-03-08T03:16:18;9.02;;;4.68;;
33150;SDS011;19508;42.578;23.416;2024-03-08T03:18:46;8.18;;;4.53;;
33150;SDS011;19508;42.578;23.416;2024-03-08T03:21:29;8.15;;;4.50;;
33150;SDS011;19508;42.578;23.416;2024-03-08T03:23:56;6.68;;;3.78;;
33150;SDS011;19508;42.578;23.416;2024-03-08T03:26:24;9.18;;;4.93;;
33150;SDS011;19508;42.578;23.416;2024-03-08T03:28:49;7.80;;;4.80;;
33150;SDS011;19508;42.578;23.416;2024-03-08T03:31:14;11.93;;;5.65;;
33150;SDS011;19508;42.578;23.416;2024-03-08T03:33:40;13.43;;;5.30;;
33150;SDS011;19508;42.578;23.416;2024-03-08T03:36:05;8.73;;;4.35;;
33150;SDS011;19508;42.578;23.416;2024-03-08T03:38:33;9.75;;;4.88;;
33150;SDS011;19508;42.578;23.416;2024-03-08T03:40:59;7.53;;;3.97;;
33150;SDS011;19508;42.578;23.416;2024-03-08T03:43:31;17.52;;;7.00;;
33150;SDS011;19508;42.578;23.416;2024-03-08T03:45:57;18.83;;;6.80;;
33150;SDS011;19508;42.578;23.416;2024-03-08T03:48:22;72.18;;;19.95;;
33150;SDS011;19508;42.578;23.416;2024-03-08T03:50:48;49.13;;;16.38;;
33150;SDS011;19508;42.578;23.416;2024-03-08T03:53:15;34.72;;;12.23;;
33150;SDS011;19508;42.578;23.416;2024-03-08T03:55:41;19.85;;;8.00;;
33150;SDS011;19508;42.578;23.416;2024-03-08T03:58:06;21.60;;;7.60;;
33150;SDS011;19508;42.578;23.416;2024-03-08T04:00:31;37.03;;;14.02;;
33150;SDS011;19508;42.578;23.416;2024-03-08T04:02:57;29.98;;;11.02;;
33150;SDS011;19508;42.578;23.416;2024-03-08T04:05:24;11.45;;;5.50;;
33150;SDS011;19508;42.578;23.416;2024-03-08T04:07:49;47.97;;;15.98;;
33150;SDS011;19508;42.578;23.416;2024-03-08T04:10:14;42.15;;;15.85;;
33150;SDS011;19508;42.578;23.416;2024-03-08T04:12:40;25.80;;;9.68;;
33150;SDS011;19508;42.578;23.416;2024-03-08T04:15:05;19.27;;;7.93;;
33150;SDS011;19508;42.578;23.416;2024-03-08T04:17:35;19.45;;;7.35;;
33150;SDS011;19508;42.578;23.416;2024-03-08T04:20:02;11.65;;;6.13;;
33150;SDS011;19508;42.578;23.416;2024-03-08T04:22:37;11.18;;;5.20;;
33150;SDS011;19508;42.578;23.416;2024-03-08T04:25:04;9.30;;;5.28;;
33150;SDS011;19508;42.578;23.416;2024-03-08T04:27:31;32.13;;;10.05;;
33150;SDS011;19508;42.578;23.416;2024-03-08T04:29:57;22.40;;;9.65;;
33150;SDS011;19508;42.578;23.416;2024-03-08T04:32:24;16.38;;;8.43;;
33150;SDS011;19508;42.578;23.416;2024-03-08T04:34:50;14.93;;;6.78;;
33150;SDS011;19508;42.578;23.416;2024-03-08T04:37:15;14.55;;;7.78;;
33150;SDS011;19508;42.578;23.416;2024-03-08T04:39:46;14.52;;;6.32;;
33150;SDS011;19508;42.578;23.416;2024-03-08T04:42:11;7.05;;;4.30;;
33150;SDS011;19508;42.578;23.416;2024-03-08T04:44:38;7.22;;;4.10;;
33150;SDS011;19508;42.578;23.416;2024-03-08T04:47:04;17.65;;;5.78;;
33150;SDS011;19508;42.578;23.416;2024-03-08T04:49:32;9.57;;;4.70;;
33150;SDS011;19508;42.578;23.416;2024-03-08T04:54:45;4.95;;;2.70;;
33150;SDS011;19508;42.578;23.416;2024-03-08T04:57:10;17.00;;;8.07;;
33150;SDS011;19508;42.578;23.416;2024-03-08T04:59:36;4.75;;;3.28;;
33150;SDS011;19508;42.578;23.416;2024-03-08T05:02:09;8.32;;;4.75;;
33150;SDS011;19508;42.578;23.416;2024-03-08T05:04:34;9.95;;;4.47;;
33150;SDS011;19508;42.578;23.416;2024-03-08T05:07:02;8.02;;;4.10;;
33150;SDS011;19508;42.578;23.416;2024-03-08T05:09:29;7.00;;;4.25;;
33150;SDS011;19508;42.578;23.416;2024-03-08T05:11:56;14.05;;;5.78;;
33150;SDS011;19508;42.578;23.416;2024-03-08T05:14:26;7.65;;;3.70;;
33150;SDS011;19508;42.578;23.416;2024-03-08T05:16:52;5.55;;;3.20;;
33150;SDS011;19508;42.578;23.416;2024-03-08T05:19:18;6.40;;;3.72;;
33150;SDS011;19508;42.578;23.416;2024-03-08T05:21:45;8.38;;;3.78;;
33150;SDS011;19508;42.578;23.416;2024-03-08T05:24:14;7.32;;;4.07;;
33150;SDS011;19508;42.578;23.416;2024-03-08T05:26:41;7.15;;;4.13;;
33150;SDS011;19508;42.578;23.416;2024-03-08T05:29:07;3.97;;;2.90;;
33150;SDS011;19508;42.578;23.416;2024-03-08T05:31:47;5.50;;;3.25;;
33150;SDS011;19508;42.578;23.416;2024-03-08T05:34:14;12.90;;;5.82;;
33150;SDS011;19508;42.578;23.416;2024-03-08T05:36:40;23.00;;;8.75;;
33150;SDS011;19508;42.578;23.416;2024-03-08T05:39:09;13.77;;;5.80;;
33150;SDS011;19508;42.578;23.416;2024-03-08T05:41:38;15.55;;;6.25;;
33150;SDS011;19508;42.578;23.416;2024-03-08T05:44:05;13.63;;;5.00;;
33150;SDS011;19508;42.578;23.416;2024-03-08T05:46:34;7.85;;;3.65;;
33150;SDS011;19508;42.578;23.416;2024-03-08T05:49:03;27.80;;;8.38;;
33150;SDS011;19508;42.578;23.416;2024-03-08T05:51:33;16.15;;;4.40;;
33150;SDS011;19508;42.578;23.416;2024-03-08T05:54:03;30.73;;;9.55;;
33150;SDS011;19508;42.578;23.416;2024-03-08T05:56:30;11.47;;;4.60;;
33150;SDS011;19508;42.578;23.416;2024-03-08T05:58:58;18.50;;;7.07;;
33150;SDS011;19508;42.578;23.416;2024-03-08T06:01:25;14.05;;;6.25;;
33150;SDS011;19508;42.578;23.416;2024-03-08T06:03:51;12.65;;;5.85;;
33150;SDS011;19508;42.578;23.416;2024-03-08T06:06:20;15.27;;;6.00;;
33150;SDS011;19508;42.578;23.416;2024-03-08T06:08:46;13.80;;;6.38;;
33150;SDS011;19508;42.578;23.416;2024-03-08T06:11:14;14.50;;;6.38;;
33150;SDS011;19508;42.578;23.416;2024-03-08T06:13:42;20.95;;;8.25;;
33150;SDS011;19508;42.578;23.416;2024-03-08T06:16:08;17.88;;;6.40;;
33150;SDS011;19508;42.578;23.416;2024-03-08T06:18:34;13.52;;;5.90;;
33150;SDS011;19508;42.578;23.416;2024-03-08T06:21:05;21.63;;;8.73;;
33150;SDS011;19508;42.578;23.416;2024-03-08T06:23:34;10.50;;;5.15;;
33150;SDS011;19508;42.578;23.416;2024-03-08T06:26:06;14.68;;;6.82;;
33150;SDS011;19508;42.578;23.416;2024-03-08T06:28:32;10.98;;;5.68;;
33150;SDS011;19508;42.578;23.416;2024-03-08T06:31:01;32.17;;;11.25;;
33150;SDS011;19508;42.578;23.416;2024-03-08T06:33:27;78.35;;;19.50;;
33150;SDS011;19508;42.578;23.416;2024-03-08T06:35:53;50.80;;;14.68;;
33150;SDS011;19508;42.578;23.416;2024-03-08T06:38:28;16.27;;;7.65;;
33150;SDS011;19508;42.578;23.416;2024-03-08T06:40:55;48.55;;;13.50;;
33150;SDS011;19508;42.578;23.416;2024-03-08T06:43:21;51.67;;;13.52;;
33150;SDS011;19508;42.578;23.416;2024-03-08T06:45:57;35.63;;;11.77;;
33150;SDS011;19508;42.578;23.416;2024-03-08T06:48:23;33.95;;;10.73;;
33150;SDS011;19508;42.578;23.416;2024-03-08T06:50:48;22.52;;;7.80;;
33150;SDS011;19508;42.578;23.416;2024-03-08T06:53:13;22.88;;;8.93;;
33150;SDS011;19508;42.578;23.416;2024-03-08T06:55:39;12.70;;;5.15;;
33150;SDS011;19508;42.578;23.416;2024-03-08T06:58:05;11.38;;;5.95;;
33150;SDS011;19508;42.578;23.416;2024-03-08T07:00:32;13.63;;;6.32;;
33150;SDS011;19508;42.578;23.416;2024-03-08T07:02:57;10.70;;;5.28;;
33150;SDS011;19508;42.578;23.416;2024-03-08T07:05:26;10.13;;;5.47;;
33150;SDS011;19508;42.578;23.416;2024-03-08T07:07:52;14.52;;;5.68;;
33150;SDS011;19508;42.578;23.416;2024-03-08T07:10:18;30.35;;;10.98;;
33150;SDS011;19508;42.578;23.416;2024-03-08T07:12:44;14.10;;;7.10;;
33150;SDS011;19508;42.578;23.416;2024-03-08T07:15:10;16.52;;;8.57;;
33150;SDS011;19508;42.578;23.416;2024-03-08T07:17:39;11.38;;;5.47;;
33150;SDS011;19508;42.578;23.416;2024-03-08T07:20:05;10.73;;;5.97;;
33150;SDS011;19508;42.578;23.416;2024-03-08T07:22:33;15.68;;;7.40;;
33150;SDS011;19508;42.578;23.416;2024-03-08T07:24:58;10.82;;;4.93;;
33150;SDS011;19508;42.578;23.416;2024-03-08T07:27:32;11.13;;;5.82;;
33150;SDS011;19508;42.578;23.416;2024-03-08T07:29:59;11.77;;;7.07;;
33150;SDS011;19508;42.578;23.416;2024-03-08T07:32:25;10.95;;;5.72;;
33150;SDS011;19508;42.578;23.416;2024-03-08T07:34:53;11.20;;;5.80;;
33150;SDS011;19508;42.578;23.416;2024-03-08T07:37:20;11.40;;;5.03;;
33150;SDS011;19508;42.578;23.416;2024-03-08T07:39:46;12.30;;;5.78;;
33150;SDS011;19508;42.578;23.416;2024-03-08T07:42:11;8.60;;;5.00;;
33150;SDS011;19508;42.578;23.416;2024-03-08T07:44:37;11.77;;;7.18;;
33150;SDS011;19508;42.578;23.416;2024-03-08T07:47:03;13.02;;;6.53;;
33150;SDS011;19508;42.578;23.416;2024-03-08T07:49:29;12.40;;;6.50;;
33150;SDS011;19508;42.578;23.416;2024-03-08T07:51:55;14.55;;;6.50;;
33150;SDS011;19508;42.578;23.416;2024-03-08T07:54:21;13.73;;;7.57;;
33150;SDS011;19508;42.578;23.416;2024-03-08T07:56:47;11.27;;;6.07;;
33150;SDS011;19508;42.578;23.416;2024-03-08T07:59:12;14.35;;;6.22;;
33150;SDS011;19508;42.578;23.416;2024-03-08T08:01:37;11.43;;;6.40;;
33150;SDS011;19508;42.578;23.416;2024-03-08T08:04:03;12.30;;;6.35;;
33150;SDS011;19508;42.578;23.416;2024-03-08T08:06:29;15.25;;;6.75;;
33150;SDS011;19508;42.578;23.416;2024-03-08T08:08:58;12.30;;;7.30;;
33150;SDS011;19508;42.578;23.416;2024-03-08T08:11:25;13.60;;;6.55;;
33150;SDS011;19508;42.578;23.416;2024-03-08T08:13:52;16.95;;;7.75;;
33150;SDS011;19508;42.578;23.416;2024-03-08T08:16:19;11.52;;;6.10;;
33150;SDS011;19508;42.578;23.416;2024-03-08T08:18:45;12.75;;;7.00;;
33150;SDS011;19508;42.578;23.416;2024-03-08T08:21:11;15.23;;;7.35;;
33150;SDS011;19508;42.578;23.416;2024-03-08T08:23:36;13.38;;;6.60;;
33150;SDS011;19508;42.578;23.416;2024-03-08T08:26:02;11.77;;;6.03;;
33150;SDS011;19508;42.578;23.416;2024-03-08T08:28:29;12.57;;;6.90;;
33150;SDS011;19508;42.578;23.416;2024-03-08T08:30:55;11.95;;;6.72;;
33150;SDS011;19508;42.578;23.416;2024-03-08T08:33:21;21.30;;;6.80;;
33150;SDS011;19508;42.578;23.416;2024-03-08T08:35:46;11.10;;;5.50;;
33150;SDS011;19508;42.578;23.416;2024-03-08T08:38:13;13.90;;;5.93;;
33150;SDS011;19508;42.578;23.416;2024-03-08T08:40:38;11.98;;;6.05;;
33150;SDS011;19508;42.578;23.416;2024-03-08T08:43:05;11.02;;;5.88;;
33150;SDS011;19508;42.578;23.416;2024-03-08T08:45:30;18.58;;;8.65;;
33150;SDS011;19508;42.578;23.416;2024-03-08T08:47:56;10.50;;;6.00;;
33150;SDS011;19508;42.578;23.416;2024-03-08T08:50:24;7.45;;;4.75;;
33150;SDS011;19508;42.578;23.416;2024-03-08T08:52:51;10.70;;;5.18;;
33150;SDS011;19508;42.578;23.416;2024-03-08T08:55:18;7.63;;;4.60;;
33150;SDS011;19508;42.578;23.416;2024-03-08T08:57:46;8.50;;;4.60;;
33150;SDS011;19508;42.578;23.416;2024-03-08T09:00:13;17.33;;;6.32;;
33150;SDS011;19508;42.578;23.416;2024-03-08T09:02:40;10.35;;;4.85;;
33150;SDS011;19508;42.578;23.416;2024-03-08T09:05:06;8.63;;;4.65;;
33150;SDS011;19508;42.578;23.416;2024-03-08T09:07:36;8.95;;;4.90;;
33150;SDS011;19508;42.578;23.416;2024-03-08T09:10:02;6.57;;;4.07;;
33150;SDS011;19508;42.578;23.416;2024-03-08T09:12:28;8.52;;;4.75;;
33150;SDS011;19508;42.578;23.416;2024-03-08T09:14:53;8.60;;;5.35;;
33150;SDS011;19508;42.578;23.416;2024-03-08T09:17:19;11.90;;;5.18;;
33150;SDS011;19508;42.578;23.416;2024-03-08T09:19:49;8.90;;;5.10;;
33150;SDS011;19508;42.578;23.416;2024-03-08T09:22:15;13.90;;;6.85;;
33150;SDS011;19508;42.578;23.416;2024-03-08T09:24:40;7.57;;;4.30;;
33150;SDS011;19508;42.578;23.416;2024-03-08T09:27:08;6.75;;;4.45;;
33150;SDS011;19508;42.578;23.416;2024-03-08T09:29:34;8.40;;;4.28;;
33150;SDS011;19508;42.578;23.416;2024-03-08T09:32:00;9.27;;;4.28;;
33150;SDS011;19508;42.578;23.416;2024-03-08T09:34:32;9.68;;;4.65;;
33150;SDS011;19508;42.578;23.416;2024-03-08T09:36:57;13.10;;;5.65;;
33150;SDS011;19508;42.578;23.416;2024-03-08T09:39:23;11.07;;;5.68;;
33150;SDS011;19508;42.578;23.416;2024-03-08T09:41:48;10.93;;;4.60;;
33150;SDS011;19508;42.578;23.416;2024-03-08T09:44:17;19.48;;;8.35;;
33150;SDS011;19508;42.578;23.416;2024-03-08T09:46:45;84.07;;;35.15;;
33150;SDS011;19508;42.578;23.416;2024-03-08T09:49:12;8.07;;;4.68;;
33150;SDS011;19508;42.578;23.416;2024-03-08T09:51:38;8.00;;;3.20;;
33150;SDS011;19508;42.578;23.416;2024-03-08T09:54:05;4.75;;;2.53;;
33150;SDS011;19508;42.578;23.416;2024-03-08T09:56:37;5.60;;;3.30;;
33150;SDS011;19508;42.578;23.416;2024-03-08T09:59:06;5.18;;;3.13;;
33150;SDS011;19508;42.578;23.416;2024-03-08T10:01:50;5.82;;;3.20;;
33150;SDS011;19508;42.578;23.416;2024-03-08T10:04:17;6.00;;;3.35;;
33150;SDS011;19508;42.578;23.416;2024-03-08T10:06:43;5.85;;;3.55;;
33150;SDS011;19508;42.578;23.416;2024-03-08T10:09:12;7.80;;;3.47;;
33150;SDS011;19508;42.578;23.416;2024-03-08T10:11:37;6.13;;;3.72;;
33150;SDS011;19508;42.578;23.416;2024-03-08T10:14:04;17.13;;;4.32;;
33150;SDS011;19508;42.578;23.416;2024-03-08T10:16:31;8.18;;;4.72;;
33150;SDS011;19508;42.578;23.416;2024-03-08T10:18:56;6.28;;;3.90;;
33150;SDS011;19508;42.578;23.416;2024-03-08T10:21:22;11.50;;;4.25;;
33150;SDS011;19508;42.578;23.416;2024-03-08T10:23:48;9.20;;;4.18;;
33150;SDS011;19508;42.578;23.416;2024-03-08T10:26:14;11.05;;;4.50;;
33150;SDS011;19508;42.578;23.416;2024-03-08T10:28:44;8.20;;;4.22;;
33150;SDS011;19508;42.578;23.416;2024-03-08T10:31:12;7.00;;;4.25;;
33150;SDS011;19508;42.578;23.416;2024-03-08T10:33:40;10.15;;;4.05;;
33150;SDS011;19508;42.578;23.416;2024-03-08T10:36:10;7.15;;;4.15;;
33150;SDS011;19508;42.578;23.416;2024-03-08T10:38:49;4.13;;;2.72;;
33150;SDS011;19508;42.578;23.416;2024-03-08T10:41:18;6.03;;;3.13;;
33150;SDS011;19508;42.578;23.416;2024-03-08T10:49:16;15.82;;;3.55;;
33150;SDS011;19508;42.578;23.416;2024-03-08T10:51:45;5.03;;;3.20;;
33150;SDS011;19508;42.578;23.416;2024-03-08T10:54:12;9.73;;;2.97;;
33150;SDS011;19508;42.578;23.416;2024-03-08T10:56:40;18.63;;;3.53;;
33150;SDS011;19508;42.578;23.416;2024-03-08T10:59:07;7.93;;;3.35;;
33150;SDS011;19508;42.578;23.416;2024-03-08T11:01:33;7.82;;;2.85;;
33150;SDS011;19508;42.578;23.416;2024-03-08T11:03:59;15.25;;;3.17;;
33150;SDS011;19508;42.578;23.416;2024-03-08T11:09:03;7.80;;;3.30;;
33150;SDS011;19508;42.578;23.416;2024-03-08T11:14:54;4.57;;;2.83;;
33150;SDS011;19508;42.578;23.416;2024-03-08T11:19:54;7.28;;;2.58;;
33150;SDS011;19508;42.578;23.416;2024-03-08T11:22:28;4.93;;;2.33;;
33150;SDS011;19508;42.578;23.416;2024-03-08T11:25:05;7.70;;;4.22;;
33150;SDS011;19508;42.578;23.416;2024-03-08T11:27:37;7.18;;;2.25;;
33150;SDS011;19508;42.578;23.416;2024-03-08T11:30:06;9.02;;;3.20;;
33150;SDS011;19508;42.578;23.416;2024-03-08T11:32:46;4.05;;;2.38;;
33150;SDS011;19508;42.578;23.416;2024-03-08T11:35:19;3.70;;;2.40;;
33150;SDS011;19508;42.578;23.416;2024-03-08T11:37:46;5.35;;;2.80;;
33150;SDS011;19508;42.578;23.416;2024-03-08T11:40:13;7.88;;;5.07;;
33150;SDS011;19508;42.578;23.416;2024-03-08T11:42:44;8.82;;;3.08;;
33150;SDS011;19508;42.578;23.416;2024-03-08T11:45:16;4.70;;;2.83;;
33150;SDS011;19508;42.578;23.416;2024-03-08T11:47:42;12.00;;;3.42;;
33150;SDS011;19508;42.578;23.416;2024-03-08T11:50:11;5.93;;;2.97;;
33150;SDS011;19508;42.578;23.416;2024-03-08T11:52:37;7.47;;;3.17;;
33150;SDS011;19508;42.578;23.416;2024-03-08T11:55:03;14.55;;;3.45;;
33150;SDS011;19508;42.578;23.416;2024-03-08T11:57:31;6.72;;;1.88;;
33150;SDS011;19508;42.578;23.416;2024-03-08T11:59:58;7.45;;;2.83;;
33150;SDS011;19508;42.578;23.416;2024-03-08T12:02:31;20.98;;;4.82;;
33150;SDS011;19508;42.578;23.416;2024-03-08T12:04:57;4.65;;;2.65;;
33150;SDS011;19508;42.578;23.416;2024-03-08T12:07:25;5.50;;;2.60;;
33150;SDS011;19508;42.578;23.416;2024-03-08T12:12:46;4.55;;;2.67;;
33150;SDS011;19508;42.578;23.416;2024-03-08T12:15:14;10.93;;;2.95;;
33150;SDS011;19508;42.578;23.416;2024-03-08T12:17:40;5.35;;;3.05;;
33150;SDS011;19508;42.578;23.416;2024-03-08T12:20:23;4.57;;;2.85;;
33150;SDS011;19508;42.578;23.416;2024-03-08T12:22:51;4.03;;;2.45;;
33150;SDS011;19508;42.578;23.416;2024-03-08T12:25:18;6.13;;;3.35;;
33150;SDS011;19508;42.578;23.416;2024-03-08T12:27:45;8.05;;;2.15;;
33150;SDS011;19508;42.578;23.416;2024-03-08T12:30:18;3.28;;;2.08;;
33150;SDS011;19508;42.578;23.416;2024-03-08T12:32:58;3.35;;;2.13;;
33150;SDS011;19508;42.578;23.416;2024-03-08T12:35:26;4.88;;;2.60;;
33150;SDS011;19508;42.578;23.416;2024-03-08T12:37:53;7.20;;;3.03;;
33150;SDS011;19508;42.578;23.416;2024-03-08T12:40:27;9.25;;;2.97;;
33150;SDS011;19508;42.578;23.416;2024-03-08T12:42:55;4.85;;;2.60;;
33150;SDS011;19508;42.578;23.416;2024-03-08T12:45:21;11.65;;;2.60;;
33150;SDS011;19508;42.578;23.416;2024-03-08T12:47:49;5.43;;;2.22;;
33150;SDS011;19508;42.578;23.416;2024-03-08T12:50:18;3.85;;;1.95;;
33150;SDS011;19508;42.578;23.416;2024-03-08T12:52:44;3.80;;;1.95;;
33150;SDS011;19508;42.578;23.416;2024-03-08T12:55:10;3.30;;;2.00;;
33150;SDS011;19508;42.578;23.416;2024-03-08T12:57:35;9.32;;;2.13;;
33150;SDS011;19508;42.578;23.416;2024-03-08T13:00:02;9.48;;;2.33;;
33150;SDS011;19508;42.578;23.416;2024-03-08T13:02:29;5.40;;;2.20;;
33150;SDS011;19508;42.578;23.416;2024-03-08T13:04:57;3.95;;;2.22;;
33150;SDS011;19508;42.578;23.416;2024-03-08T13:07:23;4.70;;;3.45;;
33150;SDS011;19508;42.578;23.416;2024-03-08T13:09:51;9.23;;;3.92;;
33150;SDS011;19508;42.578;23.416;2024-03-08T13:12:20;4.22;;;2.22;;
33150;SDS011;19508;42.578;23.416;2024-03-08T13:14:46;3.25;;;1.90;;
33150;SDS011;19508;42.578;23.416;2024-03-08T13:17:13;9.13;;;1.90;;
33150;SDS011;19508;42.578;23.416;2024-03-08T13:19:39;3.42;;;1.95;;
33150;SDS011;19508;42.578;23.416;2024-03-08T13:22:04;3.33;;;2.00;;
33150;SDS011;19508;42.578;23.416;2024-03-08T13:24:30;9.07;;;2.65;;
33150;SDS011;19508;42.578;23.416;2024-03-08T13:26:56;7.63;;;3.90;;
33150;SDS011;19508;42.578;23.416;2024-03-08T13:29:22;21.52;;;6.53;;
33150;SDS011;19508;42.578;23.416;2024-03-08T13:31:48;2.53;;;2.20;;
33150;SDS011;19508;42.578;23.416;2024-03-08T13:34:16;7.30;;;3.50;;
33150;SDS011;19508;42.578;23.416;2024-03-08T13:36:53;3.72;;;2.53;;
33150;SDS011;19508;42.578;23.416;2024-03-08T13:39:24;4.53;;;2.53;;
33150;SDS011;19508;42.578;23.416;2024-03-08T13:41:50;10.98;;;2.42;;
33150;SDS011;19508;42.578;23.416;2024-03-08T13:44:16;8.40;;;2.30;;
33150;SDS011;19508;42.578;23.416;2024-03-08T13:46:42;4.50;;;2.80;;
33150;SDS011;19508;42.578;23.416;2024-03-08T13:49:07;3.55;;;1.85;;
33150;SDS011;19508;42.578;23.416;2024-03-08T13:51:35;7.22;;;2.22;;
33150;SDS011;19508;42.578;23.416;2024-03-08T13:54:00;4.50;;;2.72;;
33150;SDS011;19508;42.578;23.416;2024-03-08T13:56:27;10.23;;;2.45;;
33150;SDS011;19508;42.578;23.416;2024-03-08T13:58:56;13.40;;;2.42;;
33150;SDS011;19508;42.578;23.416;2024-03-08T14:01:22;11.23;;;2.38;;
33150;SDS011;19508;42.578;23.416;2024-03-08T14:03:47;4.18;;;2.03;;
33150;SDS011;19508;42.578;23.416;2024-03-08T14:06:13;10.15;;;2.35;;
33150;SDS011;19508;42.578;23.416;2024-03-08T14:08:38;14.52;;;2.30;;
33150;SDS011;19508;42.578;23.416;2024-03-08T14:11:04;3.47;;;2.47;;
33150;SDS011;19508;42.578;23.416;2024-03-08T14:13:42;18.50;;;3.15;;
33150;SDS011;19508;42.578;23.416;2024-03-08T14:16:11;5.00;;;2.10;;
33150;SDS011;19508;42.578;23.416;2024-03-08T14:18:38;7.50;;;2.15;;
33150;SDS011;19508;42.578;23.416;2024-03-08T14:21:04;5.32;;;2.97;;
33150;SDS011;19508;42.578;23.416;2024-03-08T14:23:29;12.13;;;2.60;;
33150;SDS011;19508;42.578;23.416;2024-03-08T14:25:55;6.20;;;2.50;;
33150;SDS011;19508;42.578;23.416;2024-03-08T14:28:21;11.35;;;2.58;;
33150;SDS011;19508;42.578;23.416;2024-03-08T14:30:47;10.27;;;2.53;;
33150;SDS011;19508;42.578;23.416;2024-03-08T14:33:13;6.68;;;2.72;;
33150;SDS011;19508;42.578;23.416;2024-03-08T14:35:39;4.20;;;2.05;;
33150;SDS011;19508;42.578;23.416;2024-03-08T14:38:05;10.55;;;2.33;;
33150;SDS011;19508;42.578;23.416;2024-03-08T14:40:33;7.47;;;2.50;;
33150;SDS011;19508;42.578;23.416;2024-03-08T14:42:59;6.88;;;2.75;;